sensor_id;sensor_type;location;lat;lon;timestamp;pressure;altitude;pressure_sealevel;temperature;humidity
36234;BME280;43467;50.890;5.982;2024-03-23T00:55:32;99632.66;;;9.81;80.07
36234;BME280;43467;50.890;5.982;2024-03-23T00:57:58;99639.13;;;9.58;78.70
36234;BME280;43467;50.890;5.982;2024-03-23T01:00:23;99632.13;;;9.40;79.25
36234;BME280;43467;50.890;5.982;2024-03-23T01:02:49;99631.13;;;9.43;79.36
36234;BME280;43467;50.890;5.982;2024-03-23T01:05:14;99636.16;;;9.13;78.48
36234;BME280;43467;50.890;5.982;2024-03-23T01:07:39;99636.50;;;9.05;77.32
36234;BME280;43467;50.890;5.982;2024-03-23T01:10:05;99641.41;;;8.96;77.17
36234;BME280;43467;50.890;5.982;2024-03-23T01:12:30;99642.66;;;9.06;77.85
36234;BME280;43467;50.890;5.982;2024-03-23T01:14:56;99639.16;;;9.05;76.69
36234;BME280;43467;50.890;5.982;2024-03-23T01:17:22;99638.59;;;8.99;77.60
36234;BME280;43467;50.890;5.982;2024-03-23T01:19:47;99638.22;;;9.06;77.64
36234;BME280;43467;50.890;5.982;2024-03-23T01:22:13;99637.75;;;8.98;76.75
36234;BME280;43467;50.890;5.982;2024-03-23T01:24:38;99626.59;;;9.10;77.80
36234;BME280;43467;50.890;5.982;2024-03-23T01:27:04;99628.09;;;9.16;77.34
36234;BME280;43467;50.890;5.982;2024-03-23T01:29:29;99630.41;;;9.22;77.01
36234;BME280;43467;50.890;5.982;2024-03-23T01:31:55;99631.97;;;9.26;76.23
36234;BME280;43467;50.890;5.982;2024-03-23T01:34:20;99628.78;;;9.19;75.75
36234;BME280;43467;50.890;5.982;2024-03-23T01:36:46;99635.09;;;9.17;75.06
36234;BME280;43467;50.890;5.982;2024-03-23T01:39:12;99624.41;;;9.18;75.72
36234;BME280;43467;50.890;5.982;2024-03-23T01:41:38;99615.97;;;9.29;76.67
36234;BME280;43467;50.890;5.982;2024-03-23T01:44:07;99623.09;;;9.27;75.00
36234;BME280;43467;50.890;5.982;2024-03-23T01:46:39;99610.75;;;9.27;74.50
36234;BME280;43467;50.890;5.982;2024-03-23T01:49:06;99614.31;;;9.26;75.07
36234;BME280;43467;50.890;5.982;2024-03-23T01:51:33;99612.88;;;9.21;74.36
36234;BME280;43467;50.890;5.982;2024-03-23T01:54:01;99620.63;;;9.24;73.92
36234;BME280;43467;50.890;5.982;2024-03-23T01:56:33;99622.56;;;9.20;73.09
36234;BME280;43467;50.890;5.982;2024-03-23T01:59:03;99625.28;;;9.19;74.28
36234;BME280;43467;50.890;5.982;2024-03-23T02:01:28;99619.72;;;9.25;74.96
36234;BME280;43467;50.890;5.982;2024-03-23T02:03:54;99623.66;;;9.16;75.73
36234;BME280;43467;50.890;5.982;2024-03-23T02:06:19;99624.50;;;9.17;75.83
36234;BME280;43467;50.890;5.982;2024-03-23T02:08:45;99613.09;;;9.16;75.91
36234;BME280;43467;50.890;5.982;2024-03-23T02:11:10;99614.31;;;9.26;76.10
36234;BME280;43467;50.890;5.982;2024-03-23T02:13:35;99612.38;;;9.30;74.11
36234;BME280;43467;50.890;5.982;2024-03-23T02:16:01;99618.91;;;9.23;75.22
36234;BME280;43467;50.890;5.982;2024-03-23T02:18:27;99618.75;;;9.09;75.87
36234;BME280;43467;50.890;5.982;2024-03-23T02:20:52;99615.56;;;9.19;77.20
36234;BME280;43467;50.890;5.982;2024-03-23T02:23:17;99620.22;;;9.14;77.21
36234;BME280;43467;50.890;5.982;2024-03-23T02:25:43;99606.94;;;9.16;77.76
36234;BME280;43467;50.890;5.982;2024-03-23T02:28:09;99601.34;;;9.22;78.21
36234;BME280;43467;50.890;5.982;2024-03-23T02:30:34;99597.09;;;9.37;78.17
36234;BME280;43467;50.890;5.982;2024-03-23T02:33:00;99598.72;;;9.39;77.08
36234;BME280;43467;50.890;5.982;2024-03-23T02:35:25;99585.66;;;9.36;76.42
36234;BME280;43467;50.890;5.982;2024-03-23T02:37:50;99590.38;;;9.29;76.51
36234;BME280;43467;50.890;5.982;2024-03-23T02:40:16;99592.81;;;9.34;76.52
36234;BME280;43467;50.890;5.982;2024-03-23T02:42:42;99599.97;;;9.32;76.70
36234;BME280;43467;50.890;5.982;2024-03-23T02:45:07;99607.41;;;9.24;77.26
36234;BME280;43467;50.890;5.982;2024-03-23T02:47:33;99592.09;;;9.13;76.69
36234;BME280;43467;50.890;5.982;2024-03-23T02:49:58;99564.91;;;9.11;76.38
36234;BME280;43467;50.890;5.982;2024-03-23T02:52:24;99559.56;;;9.30;77.81
36234;BME280;43467;50.890;5.982;2024-03-23T02:54:49;99564.19;;;9.42;77.07
36234;BME280;43467;50.890;5.982;2024-03-23T02:57:15;99561.94;;;9.52;77.45
36234;BME280;43467;50.890;5.982;2024-03-23T02:59:40;99548.41;;;9.58;78.70
36234;BME280;43467;50.890;5.982;2024-03-23T03:02:06;99561.25;;;9.65;77.04
36234;BME280;43467;50.890;5.982;2024-03-23T03:04:31;99558.31;;;9.70;76.95
36234;BME280;43467;50.890;5.982;2024-03-23T03:06:57;99566.88;;;9.75;76.71
36234;BME280;43467;50.890;5.982;2024-03-23T03:09:23;99573.72;;;9.79;74.85
36234;BME280;43467;50.890;5.982;2024-03-23T03:11:48;99579.00;;;9.79;74.71
36234;BME280;43467;50.890;5.982;2024-03-23T03:14:14;99582.03;;;9.71;75.91
36234;BME280;43467;50.890;5.982;2024-03-23T03:16:39;99590.09;;;9.53;75.21
36234;BME280;43467;50.890;5.982;2024-03-23T03:19:04;99593.59;;;9.36;75.35
36234;BME280;43467;50.890;5.982;2024-03-23T03:21:31;99603.00;;;9.24;75.56
36234;BME280;43467;50.890;5.982;2024-03-23T03:23:57;99605.41;;;9.12;77.44
36234;BME280;43467;50.890;5.982;2024-03-23T03:26:23;99608.19;;;9.09;78.65
36234;BME280;43467;50.890;5.982;2024-03-23T03:28:48;99608.03;;;9.12;78.69
36234;BME280;43467;50.890;5.982;2024-03-23T03:31:19;99615.16;;;9.10;78.72
36234;BME280;43467;50.890;5.982;2024-03-23T03:33:45;99611.06;;;9.04;77.81
36234;BME280;43467;50.890;5.982;2024-03-23T03:36:11;99608.31;;;9.06;78.91
36234;BME280;43467;50.890;5.982;2024-03-23T03:38:36;99600.16;;;8.93;79.00
36234;BME280;43467;50.890;5.982;2024-03-23T03:41:02;99607.69;;;8.83;79.47
36234;BME280;43467;50.890;5.982;2024-03-23T03:43:28;99612.38;;;8.77;79.99
36234;BME280;43467;50.890;5.982;2024-03-23T03:45:57;99615.97;;;8.57;79.38
36234;BME280;43467;50.890;5.982;2024-03-23T03:48:23;99622.97;;;8.58;80.88
36234;BME280;43467;50.890;5.982;2024-03-23T03:50:48;99618.13;;;8.49;81.02
36234;BME280;43467;50.890;5.982;2024-03-23T03:53:14;99617.25;;;8.49;80.42
36234;BME280;43467;50.890;5.982;2024-03-23T03:55:40;99602.38;;;8.48;80.84
36234;BME280;43467;50.890;5.982;2024-03-23T03:58:05;99595.19;;;8.51;80.45
36234;BME280;43467;50.890;5.982;2024-03-23T04:00:31;99603.16;;;8.31;80.95
36234;BME280;43467;50.890;5.982;2024-03-23T04:02:57;99596.28;;;8.27;81.53
36234;BME280;43467;50.890;5.982;2024-03-23T04:05:23;99605.13;;;8.26;82.11
36234;BME280;43467;50.890;5.982;2024-03-23T04:07:48;99603.06;;;8.32;82.21
36234;BME280;43467;50.890;5.982;2024-03-23T04:10:14;99603.00;;;8.34;82.96
36234;BME280;43467;50.890;5.982;2024-03-23T04:12:40;99599.00;;;8.25;82.67
36234;BME280;43467;50.890;5.982;2024-03-23T04:15:06;99599.41;;;8.16;83.43
36234;BME280;43467;50.890;5.982;2024-03-23T04:17:32;99598.91;;;8.08;83.62
36234;BME280;43467;50.890;5.982;2024-03-23T04:19:59;99595.69;;;8.20;83.43
36234;BME280;43467;50.890;5.982;2024-03-23T04:22:25;99600.81;;;8.23;83.02
36234;BME280;43467;50.890;5.982;2024-03-23T04:24:55;99599.25;;;8.19;83.25
36234;BME280;43467;50.890;5.982;2024-03-23T04:27:21;99602.69;;;8.21;83.44
36234;BME280;43467;50.890;5.982;2024-03-23T04:29:50;99601.53;;;8.08;83.23
36234;BME280;43467;50.890;5.982;2024-03-23T04:32:16;99599.69;;;8.10;82.65
36234;BME280;43467;50.890;5.982;2024-03-23T04:34:43;99590.72;;;8.14;83.09
36234;BME280;43467;50.890;5.982;2024-03-23T04:37:09;99591.28;;;8.02;83.32
36234;BME280;43467;50.890;5.982;2024-03-23T04:39:36;99591.63;;;7.94;83.67
36234;BME280;43467;50.890;5.982;2024-03-23T04:42:02;99587.69;;;8.03;84.12
36234;BME280;43467;50.890;5.982;2024-03-23T04:44:28;99592.97;;;8.03;83.93
36234;BME280;43467;50.890;5.982;2024-03-23T04:46:53;99588.00;;;7.97;83.74
36234;BME280;43467;50.890;5.982;2024-03-23T04:49:19;99602.81;;;8.00;84.05
36234;BME280;43467;50.890;5.982;2024-03-23T04:51:45;99595.66;;;7.83;84.06
36234;BME280;43467;50.890;5.982;2024-03-23T04:56:51;99592.31;;;7.79;84.98
36234;BME280;43467;50.890;5.982;2024-03-23T04:59:17;99585.50;;;7.94;84.67
36234;BME280;43467;50.890;5.982;2024-03-23T05:01:42;99579.22;;;7.97;83.84
36234;BME280;43467;50.890;5.982;2024-03-23T05:04:08;99582.38;;;8.05;83.46
36234;BME280;43467;50.890;5.982;2024-03-23T05:06:34;99577.09;;;8.05;83.54
36234;BME280;43467;50.890;5.982;2024-03-23T05:09:00;99593.34;;;8.14;83.57
36234;BME280;43467;50.890;5.982;2024-03-23T05:11:27;99594.47;;;8.09;84.02
36234;BME280;43467;50.890;5.982;2024-03-23T05:13:52;99589.13;;;7.91;84.00
36234;BME280;43467;50.890;5.982;2024-03-23T05:16:18;99597.88;;;7.92;84.14
36234;BME280;43467;50.890;5.982;2024-03-23T05:18:43;99604.59;;;7.99;84.42
36234;BME280;43467;50.890;5.982;2024-03-23T05:21:08;99599.53;;;7.94;84.46
36234;BME280;43467;50.890;5.982;2024-03-23T05:23:34;99590.69;;;7.95;84.53
36234;BME280;43467;50.890;5.982;2024-03-23T05:26:00;99608.44;;;7.92;84.46
36234;BME280;43467;50.890;5.982;2024-03-23T05:28:26;99601.94;;;7.80;85.19
36234;BME280;43467;50.890;5.982;2024-03-23T05:30:52;99606.06;;;7.86;85.56
36234;BME280;43467;50.890;5.982;2024-03-23T05:33:19;99596.31;;;7.88;85.60
36234;BME280;43467;50.890;5.982;2024-03-23T05:35:46;99602.28;;;7.91;85.53
36234;BME280;43467;50.890;5.982;2024-03-23T05:38:13;99604.75;;;7.76;85.95
36234;BME280;43467;50.890;5.982;2024-03-23T05:40:39;99605.75;;;7.73;86.18
36234;BME280;43467;50.890;5.982;2024-03-23T05:43:08;99611.44;;;7.64;86.62
36234;BME280;43467;50.890;5.982;2024-03-23T05:45:34;99601.44;;;7.52;87.32
36234;BME280;43467;50.890;5.982;2024-03-23T05:48:00;99607.41;;;7.56;87.74
36234;BME280;43467;50.890;5.982;2024-03-23T05:50:25;99604.31;;;7.46;87.53
36234;BME280;43467;50.890;5.982;2024-03-23T05:52:50;99594.72;;;7.45;87.93
36234;BME280;43467;50.890;5.982;2024-03-23T05:55:16;99597.72;;;7.56;87.88
36234;BME280;43467;50.890;5.982;2024-03-23T05:57:41;99597.97;;;7.50;87.60
36234;BME280;43467;50.890;5.982;2024-03-23T06:00:07;99595.50;;;7.47;87.75
36234;BME280;43467;50.890;5.982;2024-03-23T06:02:41;99596.31;;;7.49;88.30
36234;BME280;43467;50.890;5.982;2024-03-23T06:05:09;99601.28;;;7.55;87.82
36234;BME280;43467;50.890;5.982;2024-03-23T06:07:34;99611.97;;;7.52;87.17
36234;BME280;43467;50.890;5.982;2024-03-23T06:10:00;99617.38;;;7.49;87.44
36234;BME280;43467;50.890;5.982;2024-03-23T06:12:25;99617.09;;;7.55;87.85
36234;BME280;43467;50.890;5.982;2024-03-23T06:14:51;99616.84;;;7.61;87.36
36234;BME280;43467;50.890;5.982;2024-03-23T06:17:16;99626.72;;;7.56;86.96
36234;BME280;43467;50.890;5.982;2024-03-23T06:19:43;99628.97;;;7.65;87.28
36234;BME280;43467;50.890;5.982;2024-03-23T06:22:08;99621.69;;;7.70;87.30
36234;BME280;43467;50.890;5.982;2024-03-23T06:24:33;99628.41;;;7.77;87.25
36234;BME280;43467;50.890;5.982;2024-03-23T06:26:59;99627.56;;;7.77;87.07
36234;BME280;43467;50.890;5.982;2024-03-23T06:29:24;99629.28;;;7.78;86.95
36234;BME280;43467;50.890;5.982;2024-03-23T06:31:54;99627.88;;;7.89;86.99
36234;BME280;43467;50.890;5.982;2024-03-23T06:34:20;99629.84;;;7.84;86.71
36234;BME280;43467;50.890;5.982;2024-03-23T06:36:46;99637.06;;;8.00;86.33
36234;BME280;43467;50.890;5.982;2024-03-23T06:39:12;99642.28;;;8.01;86.80
36234;BME280;43467;50.890;5.982;2024-03-23T06:41:45;99644.63;;;8.07;86.61
36234;BME280;43467;50.890;5.982;2024-03-23T06:44:16;99644.19;;;8.18;85.98
36234;BME280;43467;50.890;5.982;2024-03-23T06:46:41;99673.22;;;8.16;86.09
36234;BME280;43467;50.890;5.982;2024-03-23T06:49:07;99686.75;;;8.09;85.14
36234;BME280;43467;50.890;5.982;2024-03-23T06:51:32;99672.03;;;7.64;80.13
36234;BME280;43467;50.890;5.982;2024-03-23T06:53:57;99666.59;;;7.47;77.92
36234;BME280;43467;50.890;5.982;2024-03-23T06:56:23;99649.91;;;7.26;78.58
36234;BME280;43467;50.890;5.982;2024-03-23T06:58:48;99654.00;;;7.13;77.20
36234;BME280;43467;50.890;5.982;2024-03-23T07:01:13;99663.53;;;6.94;77.11
36234;BME280;43467;50.890;5.982;2024-03-23T07:03:39;99657.06;;;7.03;79.82
36234;BME280;43467;50.890;5.982;2024-03-23T07:06:04;99654.19;;;7.09;80.66
36234;BME280;43467;50.890;5.982;2024-03-23T07:08:29;99658.22;;;7.17;81.60
36234;BME280;43467;50.890;5.982;2024-03-23T07:10:55;99657.09;;;7.23;81.29
36234;BME280;43467;50.890;5.982;2024-03-23T07:13:20;99654.09;;;7.32;81.62
36234;BME280;43467;50.890;5.982;2024-03-23T07:15:51;99644.81;;;7.43;83.28
36234;BME280;43467;50.890;5.982;2024-03-23T07:18:17;99640.34;;;7.45;83.77
36234;BME280;43467;50.890;5.982;2024-03-23T07:20:42;99634.75;;;7.53;83.74
36234;BME280;43467;50.890;5.982;2024-03-23T07:23:07;99637.91;;;7.61;82.97
36234;BME280;43467;50.890;5.982;2024-03-23T07:25:33;99634.84;;;7.70;84.81
36234;BME280;43467;50.890;5.982;2024-03-23T07:27:58;99639.47;;;7.85;84.17
36234;BME280;43467;50.890;5.982;2024-03-23T07:30:24;99637.88;;;8.02;84.73
36234;BME280;43467;50.890;5.982;2024-03-23T07:32:50;99636.47;;;8.13;84.92
36234;BME280;43467;50.890;5.982;2024-03-23T07:35:15;99636.13;;;8.21;84.31
36234;BME280;43467;50.890;5.982;2024-03-23T07:37:41;99638.03;;;8.17;84.04
36234;BME280;43467;50.890;5.982;2024-03-23T07:40:07;99634.41;;;8.20;84.96
36234;BME280;43467;50.890;5.982;2024-03-23T07:42:33;99633.53;;;8.19;84.67
36234;BME280;43467;50.890;5.982;2024-03-23T07:44:58;99633.31;;;8.24;84.15
36234;BME280;43467;50.890;5.982;2024-03-23T07:47:23;99634.34;;;8.21;83.93
36234;BME280;43467;50.890;5.982;2024-03-23T07:49:49;99643.81;;;8.25;84.24
36234;BME280;43467;50.890;5.982;2024-03-23T07:52:14;99648.63;;;8.36;83.78
36234;BME280;43467;50.890;5.982;2024-03-23T07:54:40;99639.16;;;8.32;82.86
36234;BME280;43467;50.890;5.982;2024-03-23T07:57:05;99643.34;;;8.36;82.94
36234;BME280;43467;50.890;5.982;2024-03-23T07:59:31;99652.22;;;8.35;82.63
36234;BME280;43467;50.890;5.982;2024-03-23T08:01:59;99647.13;;;8.49;82.65
36234;BME280;43467;50.890;5.982;2024-03-23T08:04:25;99635.44;;;8.36;81.86
36234;BME280;43467;50.890;5.982;2024-03-23T08:06:50;99648.41;;;8.40;81.87
36234;BME280;43467;50.890;5.982;2024-03-23T08:09:15;99663.63;;;8.54;82.49
36234;BME280;43467;50.890;5.982;2024-03-23T08:11:41;99660.47;;;8.46;81.02
36234;BME280;43467;50.890;5.982;2024-03-23T08:14:09;99650.84;;;8.45;80.67
36234;BME280;43467;50.890;5.982;2024-03-23T08:16:35;99650.78;;;8.47;79.86
36234;BME280;43467;50.890;5.982;2024-03-23T08:19:00;99662.00;;;8.52;79.45
36234;BME280;43467;50.890;5.982;2024-03-23T08:21:28;99652.50;;;8.48;79.65
36234;BME280;43467;50.890;5.982;2024-03-23T08:23:53;99660.97;;;8.54;79.36
36234;BME280;43467;50.890;5.982;2024-03-23T08:26:19;99652.06;;;8.57;78.87
36234;BME280;43467;50.890;5.982;2024-03-23T08:28:44;99657.28;;;8.58;78.05
36234;BME280;43467;50.890;5.982;2024-03-23T08:31:11;99661.59;;;8.78;78.81
36234;BME280;43467;50.890;5.982;2024-03-23T08:33:38;99661.28;;;8.67;78.01
36234;BME280;43467;50.890;5.982;2024-03-23T08:36:09;99651.06;;;8.78;79.03
36234;BME280;43467;50.890;5.982;2024-03-23T08:38:35;99668.19;;;8.88;78.93
36234;BME280;43467;50.890;5.982;2024-03-23T08:41:02;99652.41;;;8.86;78.42
36234;BME280;43467;50.890;5.982;2024-03-23T08:43:29;99660.53;;;8.82;78.45
36234;BME280;43467;50.890;5.982;2024-03-23T08:46:12;99658.47;;;8.70;77.44
36234;BME280;43467;50.890;5.982;2024-03-23T08:48:40;99660.41;;;8.66;77.47
36234;BME280;43467;50.890;5.982;2024-03-23T08:51:07;99659.88;;;8.77;77.48
36234;BME280;43467;50.890;5.982;2024-03-23T08:53:34;99666.72;;;8.81;77.84
36234;BME280;43467;50.890;5.982;2024-03-23T08:55:59;99659.81;;;8.78;75.40
36234;BME280;43467;50.890;5.982;2024-03-23T08:58:28;99659.25;;;8.91;75.20
36234;BME280;43467;50.890;5.982;2024-03-23T09:00:55;99657.84;;;9.01;75.67
36234;BME280;43467;50.890;5.982;2024-03-23T09:03:26;99648.94;;;9.03;73.13
36234;BME280;43467;50.890;5.982;2024-03-23T09:05:52;99658.44;;;9.07;72.51
36234;BME280;43467;50.890;5.982;2024-03-23T09:08:18;99652.22;;;9.08;72.34
36234;BME280;43467;50.890;5.982;2024-03-23T09:10:44;99650.72;;;9.03;72.39
36234;BME280;43467;50.890;5.982;2024-03-23T09:13:09;99650.09;;;8.98;73.25
36234;BME280;43467;50.890;5.982;2024-03-23T09:15:36;99632.72;;;8.75;72.17
36234;BME280;43467;50.890;5.982;2024-03-23T09:18:03;99649.59;;;8.90;73.72
36234;BME280;43467;50.890;5.982;2024-03-23T09:20:28;99638.06;;;8.92;74.14
36234;BME280;43467;50.890;5.982;2024-03-23T09:22:54;99644.41;;;8.88;73.26
36234;BME280;43467;50.890;5.982;2024-03-23T09:25:19;99640.44;;;8.97;73.79
36234;BME280;43467;50.890;5.982;2024-03-23T09:27:47;99639.03;;;9.08;74.62
36234;BME280;43467;50.890;5.982;2024-03-23T09:30:13;99650.31;;;8.93;71.45
36234;BME280;43467;50.890;5.982;2024-03-23T09:32:39;99650.34;;;9.10;72.27
36234;BME280;43467;50.890;5.982;2024-03-23T09:35:05;99652.84;;;9.13;71.82
36234;BME280;43467;50.890;5.982;2024-03-23T09:37:30;99630.31;;;9.06;72.72
36234;BME280;43467;50.890;5.982;2024-03-23T09:39:56;99636.88;;;8.98;72.74
36234;BME280;43467;50.890;5.982;2024-03-23T09:42:21;99628.56;;;8.88;71.94
36234;BME280;43467;50.890;5.982;2024-03-23T09:44:51;99638.19;;;8.89;70.81
36234;BME280;43467;50.890;5.982;2024-03-23T09:47:17;99657.47;;;8.91;70.92
36234;BME280;43467;50.890;5.982;2024-03-23T09:49:42;99640.88;;;9.06;71.44
36234;BME280;43467;50.890;5.982;2024-03-23T09:52:08;99648.84;;;9.05;71.24
36234;BME280;43467;50.890;5.982;2024-03-23T09:54:34;99637.72;;;9.17;69.99
36234;BME280;43467;50.890;5.982;2024-03-23T09:57:00;99644.56;;;9.21;69.32
36234;BME280;43467;50.890;5.982;2024-03-23T09:59:26;99644.00;;;9.14;70.61
36234;BME280;43467;50.890;5.982;2024-03-23T10:01:52;99638.16;;;9.08;69.91
36234;BME280;43467;50.890;5.982;2024-03-23T10:04:40;99645.00;;;9.12;71.48
36234;BME280;43467;50.890;5.982;2024-03-23T10:07:19;99637.53;;;9.03;69.11
36234;BME280;43467;50.890;5.982;2024-03-23T10:09:45;99653.31;;;9.04;68.09
36234;BME280;43467;50.890;5.982;2024-03-23T10:12:14;99625.81;;;9.08;66.92
36234;BME280;43467;50.890;5.982;2024-03-23T10:14:40;99643.75;;;9.19;66.71
36234;BME280;43467;50.890;5.982;2024-03-23T10:19:39;99634.28;;;9.15;64.01
36234;BME280;43467;50.890;5.982;2024-03-23T10:22:04;99626.19;;;9.18;64.09
36234;BME280;43467;50.890;5.982;2024-03-23T10:24:30;99634.00;;;9.38;62.40
36234;BME280;43467;50.890;5.982;2024-03-23T10:26:56;99633.22;;;9.36;63.18
36234;BME280;43467;50.890;5.982;2024-03-23T10:29:21;99626.69;;;9.43;63.24
36234;BME280;43467;50.890;5.982;2024-03-23T10:31:47;99630.41;;;9.39;63.05
36234;BME280;43467;50.890;5.982;2024-03-23T10:34:12;99632.72;;;9.11;63.87
36234;BME280;43467;50.890;5.982;2024-03-23T10:36:38;99626.59;;;9.10;64.85
36234;BME280;43467;50.890;5.982;2024-03-23T10:39:07;99626.38;;;9.15;65.58
36234;BME280;43467;50.890;5.982;2024-03-23T10:41:33;99621.00;;;9.16;63.23
36234;BME280;43467;50.890;5.982;2024-03-23T10:43:58;99620.44;;;9.10;61.06
36234;BME280;43467;50.890;5.982;2024-03-23T10:46:25;99626.44;;;9.13;61.21
36234;BME280;43467;50.890;5.982;2024-03-23T10:48:50;99617.28;;;9.20;60.77
36234;BME280;43467;50.890;5.982;2024-03-23T10:51:16;99609.44;;;9.36;60.55
36234;BME280;43467;50.890;5.982;2024-03-23T10:53:41;99602.38;;;9.37;60.20
36234;BME280;43467;50.890;5.982;2024-03-23T10:56:07;99606.81;;;9.36;61.00
36234;BME280;43467;50.890;5.982;2024-03-23T10:58:44;99610.59;;;9.30;60.27
36234;BME280;43467;50.890;5.982;2024-03-23T11:01:12;99599.63;;;9.38;60.19
36234;BME280;43467;50.890;5.982;2024-03-23T11:03:39;99613.66;;;9.40;61.62
36234;BME280;43467;50.890;5.982;2024-03-23T11:06:09;99620.47;;;9.44;61.96
36234;BME280;43467;50.890;5.982;2024-03-23T11:08:39;99629.34;;;9.43;60.82
36234;BME280;43467;50.890;5.982;2024-03-23T11:11:20;99625.13;;;9.22;57.44
36234;BME280;43467;50.890;5.982;2024-03-23T11:13:49;99625.06;;;9.23;58.46
36234;BME280;43467;50.890;5.982;2024-03-23T11:16:17;99635.56;;;9.25;59.08
36234;BME280;43467;50.890;5.982;2024-03-23T11:18:47;99632.53;;;9.32;59.11
36234;BME280;43467;50.890;5.982;2024-03-23T11:21:52;99618.97;;;9.21;59.02
36234;BME280;43467;50.890;5.982;2024-03-23T11:24:19;99620.00;;;9.36;59.52
36234;BME280;43467;50.890;5.982;2024-03-23T11:26:45;99615.50;;;9.38;58.46
36234;BME280;43467;50.890;5.982;2024-03-23T11:29:15;99618.75;;;9.43;57.46
36234;BME280;43467;50.890;5.982;2024-03-23T11:31:51;99626.84;;;9.40;56.17
36234;BME280;43467;50.890;5.982;2024-03-23T11:34:17;99607.91;;;9.49;56.24
36234;BME280;43467;50.890;5.982;2024-03-23T11:36:43;99635.53;;;9.59;56.05
36234;BME280;43467;50.890;5.982;2024-03-23T11:39:17;99714.69;;;8.91;59.17
36234;BME280;43467;50.890;5.982;2024-03-23T11:41:50;99693.47;;;8.16;62.98
36234;BME280;43467;50.890;5.982;2024-03-23T11:44:20;99685.06;;;7.67;65.54
36234;BME280;43467;50.890;5.982;2024-03-23T11:46:48;99652.66;;;7.65;67.34
36234;BME280;43467;50.890;5.982;2024-03-23T11:49:40;99651.94;;;7.62;67.98
36234;BME280;43467;50.890;5.982;2024-03-23T11:52:07;99649.94;;;7.46;67.68
36234;BME280;43467;50.890;5.982;2024-03-23T11:54:34;99647.44;;;7.64;66.96
36234;BME280;43467;50.890;5.982;2024-03-23T11:57:08;99647.50;;;7.62;65.97
36234;BME280;43467;50.890;5.982;2024-03-23T11:59:35;99633.41;;;7.83;67.22
36234;BME280;43467;50.890;5.982;2024-03-23T12:02:13;99640.03;;;8.12;66.06
36234;BME280;43467;50.890;5.982;2024-03-23T12:04:41;99633.50;;;8.39;66.01
36234;BME280;43467;50.890;5.982;2024-03-23T12:07:20;99641.19;;;8.25;65.49
36234;BME280;43467;50.890;5.982;2024-03-23T12:09:49;99629.69;;;8.47;66.22
36234;BME280;43467;50.890;5.982;2024-03-23T12:12:27;99631.50;;;8.26;67.30
36234;BME280;43467;50.890;5.982;2024-03-23T12:15:03;99646.56;;;8.04;67.40
36234;BME280;43467;50.890;5.982;2024-03-23T12:17:29;99628.00;;;8.07;67.68
36234;BME280;43467;50.890;5.982;2024-03-23T12:19:54;99603.44;;;7.86;69.57
36234;BME280;43467;50.890;5.982;2024-03-23T12:22:21;99614.69;;;7.89;72.44
36234;BME280;43467;50.890;5.982;2024-03-23T12:24:48;99597.66;;;7.78;71.44
36234;BME280;43467;50.890;5.982;2024-03-23T12:27:14;99608.81;;;7.83;72.86
36234;BME280;43467;50.890;5.982;2024-03-23T12:29:40;99601.44;;;7.91;73.08
36234;BME280;43467;50.890;5.982;2024-03-23T12:32:07;99597.72;;;7.95;72.85
36234;BME280;43467;50.890;5.982;2024-03-23T12:34:32;99595.84;;;7.99;71.41
36234;BME280;43467;50.890;5.982;2024-03-23T12:36:58;99594.78;;;8.21;72.32
36234;BME280;43467;50.890;5.982;2024-03-23T12:39:24;99592.63;;;8.31;70.96
36234;BME280;43467;50.890;5.982;2024-03-23T12:41:50;99591.19;;;8.43;69.86
36234;BME280;43467;50.890;5.982;2024-03-23T12:44:18;99587.81;;;8.58;70.00
36234;BME280;43467;50.890;5.982;2024-03-23T12:46:44;99591.25;;;8.60;70.65
36234;BME280;43467;50.890;5.982;2024-03-23T12:49:10;99580.22;;;8.69;69.35
36234;BME280;43467;50.890;5.982;2024-03-23T12:51:35;99597.66;;;8.35;69.40
36234;BME280;43467;50.890;5.982;2024-03-23T12:54:01;99623.91;;;8.00;67.97
36234;BME280;43467;50.890;5.982;2024-03-23T12:56:27;99626.84;;;7.73;70.22
36234;BME280;43467;50.890;5.982;2024-03-23T12:58:56;99619.59;;;7.58;71.49
36234;BME280;43467;50.890;5.982;2024-03-23T13:01:26;99609.66;;;7.44;71.26
36234;BME280;43467;50.890;5.982;2024-03-23T13:03:52;99598.41;;;7.21;70.58
36234;BME280;43467;50.890;5.982;2024-03-23T13:06:19;99584.03;;;7.48;72.37
36234;BME280;43467;50.890;5.982;2024-03-23T13:08:45;99564.59;;;7.51;72.96
36234;BME280;43467;50.890;5.982;2024-03-23T13:11:12;99572.97;;;7.60;73.36
36234;BME280;43467;50.890;5.982;2024-03-23T13:13:39;99565.19;;;7.96;75.12
36234;BME280;43467;50.890;5.982;2024-03-23T13:16:05;99570.44;;;8.35;71.70
36234;BME280;43467;50.890;5.982;2024-03-23T13:18:32;99554.88;;;8.83;75.33
36234;BME280;43467;50.890;5.982;2024-03-23T13:20:58;99550.94;;;9.09;71.64
36234;BME280;43467;50.890;5.982;2024-03-23T13:23:24;99549.16;;;9.27;69.43
36234;BME280;43467;50.890;5.982;2024-03-23T13:25:55;99548.66;;;9.53;67.78
36234;BME280;43467;50.890;5.982;2024-03-23T13:28:24;99544.28;;;9.69;67.34
36234;BME280;43467;50.890;5.982;2024-03-23T13:33:16;99529.63;;;9.79;62.74
36234;BME280;43467;50.890;5.982;2024-03-23T13:35:52;99535.16;;;9.75;59.19
36234;BME280;43467;50.890;5.982;2024-03-23T13:38:18;99526.59;;;9.70;60.01
36234;BME280;43467;50.890;5.982;2024-03-23T13:40:54;99519.31;;;9.58;59.88
36234;BME280;43467;50.890;5.982;2024-03-23T13:43:22;99532.38;;;9.45;58.86
36234;BME280;43467;50.890;5.982;2024-03-23T13:45:49;99543.47;;;9.34;60.51
36234;BME280;43467;50.890;5.982;2024-03-23T13:48:16;99544.94;;;9.40;62.12
36234;BME280;43467;50.890;5.982;2024-03-23T13:50:43;99570.97;;;8.96;60.76
36234;BME280;43467;50.890;5.982;2024-03-23T13:53:09;99552.75;;;8.73;66.55
36234;BME280;43467;50.890;5.982;2024-03-23T13:55:35;99555.94;;;8.62;68.42
36234;BME280;43467;50.890;5.982;2024-03-23T13:58:01;99555.22;;;8.40;69.90
36234;BME280;43467;50.890;5.982;2024-03-23T14:00:27;99555.38;;;8.37;71.28
36234;BME280;43467;50.890;5.982;2024-03-23T14:02:54;99556.84;;;8.61;69.77
36234;BME280;43467;50.890;5.982;2024-03-23T14:05:20;99552.47;;;8.79;71.27
36234;BME280;43467;50.890;5.982;2024-03-23T14:07:45;99550.00;;;9.10;70.81
36234;BME280;43467;50.890;5.982;2024-03-23T14:10:11;99554.44;;;9.44;69.65